FZWAFNUE

Guest
Details From FZWA - MBUJI MAYI
To FNUE - LUENA
Flight Number -
Tags generated
Created
Modified
Stats Distance 509 nm / 942 km
Max Altitude 34,000 ft / 10,363 m
Waypoints 10
Social Downloads 1
Likes 0
Share

Download

Looking for another format? Having issues loading an existing format? Contact us
Advertisement - Login to hide

Notes

Basic altitude profile: - Ascent Rate: 2500ft/min - Ascent Speed: 250kts - Cruise Altitude: 35000ft - Cruise Speed: 420kts - Descent Rate: 1500ft/min - Descent Speed: 250kts Options: - Use NATs: yes - Use PACOTS: yes - Use low airways: yes - Use high airways: yes

Route

FZWA MBY H4F KNG UG450F TKP EVOGO ANVUP UM731 SA 1100S02000E FNUE

ID Type Via Altitude (ft/m) Position (lat/lon) Dist (leg/tot) Name
O FZWA APT - 0 / 0 -6.12124 / 23.56901 - / 0 nm MBUJI MAYI
MBY VOR - 100 / 30 -6.11547 / 23.56311 0 / 0 nm MBUJI MAYI VOR-DME
KNG NDB H4F (AWY-LO) 22,400 / 6,828 -5.91132 / 22.49141 65 / 65 nm KANANGA NDB
SEXER FIX UG450F (AWY-HI) 34,000 / 10,363 -6.16047 / 21.65472 52 / 117 nm
TKP NDB UG450F (AWY-HI) 34,000 / 10,363 -6.43544 / 20.79970 53 / 171 nm TSHIKAPA NDB
EVOGO FIX - 34,000 / 10,363 -7.50211 / 20.28788 70 / 242 nm
ANVUP FIX - 34,000 / 10,363 -7.97167 / 20.02500 32 / 274 nm
SA NDB UM731 (AWY-HI) 33,000 / 10,058 -9.66227 / 20.39964 103 / 378 nm SAURIMO NDB
1100S02000E LATLON - 9,900 / 3,018 -11.00000 / 20.00000 83 / 462 nm
O FNUE APT - 0 / 0 -11.76809 / 19.89767 46 / 508 nm LUENA

Altitude Profile

Advertisement - Login to hide

Weather


0- 5 10 15 20 25 30 35+ Temperature / °C

Clouds and Precipitation
Forecast for 2020-10-27 18:00 UTC. Updated 4 hours ago

Ground ~20,000 ft ~40,000 ft Winds

FZWA

Details ICAO FZWA (MJM)
Name MBUJI MAYI
Region Democratic Republic of the Congo
Timezone Africa/Lubumbashi (UTC+2.0)
Stats Elevation 2,221 ft / 677 m (AMSL)
Location -6.121240° 23.569000°
Runways 1
Magnetic Variation 0.193° E

METAR

Not found

TAF

Not found

Departure Runways

ID Width Length Bearing (true/mag) Surface Threshold Overrun Markings Lighting
17 146 ft / 45 m 6,562 ft / 2,000 m 161.46° / 161.26° ASPHALT 0 ft / 0 m 1,360 ft / 415 m APP EDGE THRESHOLD
35 146 ft / 45 m 6,562 ft / 2,000 m 341.46° / 341.26° ASPHALT 0 ft / 0 m 320 ft / 98 m APP EDGE THRESHOLD

FNUE

Details ICAO FNUE (LUO)
Name Luena
Region Angola
Timezone Africa/Luanda (UTC+1.0)
Stats Elevation 4,445 ft / 1,355 m (AMSL)
Location -11.767200° 19.893400°
Runways 1
Magnetic Variation 2.553° W

METAR

Not found

TAF

TAF FNUE 271110Z 2712/2724 05005KT 9999 SCT030= TAF FNSA 271110Z 2712/2724 05005KT 9999 SCT025

Decode

Destination Runways

ID Width Length Bearing (true/mag) Surface Threshold Overrun Markings Lighting
11 148 ft / 45 m 10,981 ft / 3,347 m 104.00° / 106.56° ASPHALT 0 ft / 0 m 197 ft / 60 m PREC-APP CENTERLINE EDGE THRESHOLD REIL-OMNI
29 148 ft / 45 m 10,981 ft / 3,347 m 284.00° / 286.55° ASPHALT 0 ft / 0 m 190 ft / 58 m PREC-APP CENTERLINE EDGE THRESHOLD REIL-OMNI